createdAt,value
2023-07-21T00:01:19.106Z,11.20
2023-07-21T00:03:49.646Z,6.55
2023-07-21T00:06:20.398Z,7.38
2023-07-21T00:08:48.244Z,8.65
2023-07-21T00:11:15.927Z,8.48
2023-07-21T00:13:43.652Z,8.27
2023-07-21T00:16:11.445Z,8.82
2023-07-21T00:18:40.764Z,8.25
2023-07-21T00:21:10.719Z,7.40
2023-07-21T00:23:38.582Z,7.32
2023-07-21T00:26:06.150Z,8.83
2023-07-21T00:28:34.316Z,8.27
2023-07-21T00:31:02.039Z,7.07
2023-07-21T00:33:30.165Z,7.90
2023-07-21T00:35:59.964Z,6.80
2023-07-21T00:38:28.940Z,7.27
2023-07-21T00:40:56.999Z,7.05
2023-07-21T00:43:26.617Z,6.38
2023-07-21T00:45:54.512Z,6.80
2023-07-21T00:48:22.281Z,7.60
2023-07-21T00:50:51.065Z,8.93
2023-07-21T00:53:18.832Z,7.25
2023-07-21T00:55:48.692Z,6.63
2023-07-21T00:58:16.399Z,7.63
2023-07-21T01:00:44.532Z,7.90
2023-07-21T01:03:13.614Z,7.83
2023-07-21T01:05:42.771Z,8.10
2023-07-21T01:08:10.847Z,8.77
2023-07-21T01:10:39.916Z,8.90
2023-07-21T01:13:11.456Z,9.82
2023-07-21T01:15:44.624Z,8.00
2023-07-21T01:18:14.741Z,8.82
2023-07-21T01:20:43.507Z,10.38
2023-07-21T01:23:13.681Z,9.48
2023-07-21T01:25:43.474Z,7.50
2023-07-21T01:28:13.436Z,8.20
2023-07-21T01:30:41.399Z,10.70
2023-07-21T01:33:10.148Z,9.43
2023-07-21T01:35:38.870Z,7.47
2023-07-21T01:38:08.920Z,8.15
2023-07-21T01:40:36.935Z,8.23
2023-07-21T01:43:06.232Z,7.90
2023-07-21T01:45:34.267Z,8.82
2023-07-21T01:48:02.174Z,8.95
2023-07-21T01:50:31.121Z,8.38
2023-07-21T01:53:02.141Z,9.77
2023-07-21T01:55:34.308Z,8.77
2023-07-21T01:58:04.709Z,8.23
2023-07-21T02:00:47.839Z,8.90
2023-07-21T02:03:19.369Z,8.93
2023-07-21T02:05:48.402Z,12.13
2023-07-21T02:08:16.153Z,10.80
2023-07-21T02:10:43.968Z,7.80
2023-07-21T02:13:16.167Z,7.45
2023-07-21T02:15:45.229Z,9.32
2023-07-21T02:18:12.963Z,9.25
2023-07-21T02:20:40.646Z,8.70
2023-07-21T02:23:08.232Z,7.15
2023-07-21T02:25:36.019Z,9.55
2023-07-21T02:28:03.742Z,8.35
2023-07-21T02:30:31.341Z,9.15
2023-07-21T02:33:00.796Z,10.77
2023-07-21T02:35:29.462Z,9.48
2023-07-21T02:37:59.383Z,9.35
2023-07-21T02:40:27.978Z,8.32
2023-07-21T02:42:55.624Z,8.57
2023-07-21T02:45:23.368Z,9.03
2023-07-21T02:47:51.129Z,11.20
2023-07-21T02:50:20.204Z,10.13
2023-07-21T02:52:47.791Z,10.18
2023-07-21T02:55:15.687Z,12.10
2023-07-21T02:57:43.356Z,10.10
2023-07-21T03:00:13.967Z,10.43
2023-07-21T03:02:42.633Z,9.88
2023-07-21T03:05:11.082Z,11.27
2023-07-21T03:07:41.058Z,10.48
2023-07-21T03:10:10.731Z,9.80
2023-07-21T03:12:38.380Z,10.05
2023-07-21T03:15:07.136Z,10.93
2023-07-21T03:17:38.264Z,9.68
2023-07-21T03:20:12.226Z,12.07
2023-07-21T03:22:41.333Z,10.10
2023-07-21T03:25:10.276Z,10.60
2023-07-21T03:27:39.336Z,10.45
2023-07-21T03:30:07.605Z,9.05
2023-07-21T03:32:35.980Z,10.75
2023-07-21T03:35:06.336Z,11.17
2023-07-21T03:37:36.239Z,10.45
2023-07-21T03:40:07.942Z,11.30
2023-07-21T03:42:35.621Z,10.65
2023-07-21T03:45:05.933Z,9.93
2023-07-21T03:47:34.313Z,12.63
2023-07-21T03:50:05.496Z,11.45
2023-07-21T03:52:33.454Z,12.55
2023-07-21T03:55:01.248Z,10.50
2023-07-21T03:57:30.361Z,11.10
2023-07-21T03:59:57.944Z,12.17
2023-07-21T04:02:25.616Z,11.50
2023-07-21T04:04:54.826Z,10.68
2023-07-21T04:07:23.125Z,10.35
2023-07-21T04:09:51.015Z,11.38
2023-07-21T04:12:18.784Z,10.57
2023-07-21T04:14:47.813Z,10.02
2023-07-21T04:17:17.138Z,9.65
2023-07-21T04:19:44.872Z,10.32
2023-07-21T04:22:12.486Z,10.13
2023-07-21T04:24:41.220Z,10.30
2023-07-21T04:27:09.573Z,10.70
2023-07-21T04:29:37.671Z,11.23
2023-07-21T04:32:07.130Z,11.55
2023-07-21T04:34:35.128Z,11.20
2023-07-21T04:37:03.416Z,10.87
2023-07-21T04:39:31.132Z,12.10
2023-07-21T04:41:59.119Z,11.25
2023-07-21T04:44:26.773Z,12.50
2023-07-21T04:46:54.368Z,12.32
2023-07-21T04:49:23.448Z,12.27
2023-07-21T04:51:51.673Z,13.20
2023-07-21T04:54:19.412Z,11.25
2023-07-21T04:56:47.167Z,15.32
2023-07-21T04:59:14.802Z,11.45
2023-07-21T05:01:43.433Z,13.13
2023-07-21T05:04:11.580Z,13.82
2023-07-21T05:06:40.739Z,12.75
2023-07-21T05:09:08.531Z,13.27
2023-07-21T05:11:36.261Z,12.75
2023-07-21T05:14:05.070Z,13.30
2023-07-21T05:16:33.871Z,14.05
2023-07-21T05:19:01.505Z,13.48
2023-07-21T05:21:29.124Z,13.52
2023-07-21T05:23:58.383Z,14.90
2023-07-21T05:26:26.890Z,11.53
2023-07-21T05:28:55.521Z,12.20
2023-07-21T05:31:23.924Z,14.07
2023-07-21T05:33:52.146Z,13.02
2023-07-21T05:36:19.746Z,13.82
2023-07-21T05:38:48.334Z,11.63
2023-07-21T05:41:18.100Z,11.30
2023-07-21T05:43:45.673Z,12.00
2023-07-21T05:46:13.776Z,12.60
2023-07-21T05:48:43.115Z,12.00
2023-07-21T05:51:13.758Z,12.17
2023-07-21T05:53:43.225Z,12.73
2023-07-21T05:56:12.444Z,12.50
2023-07-21T05:58:42.483Z,13.32
2023-07-21T06:01:12.065Z,11.80
2023-07-21T06:03:39.958Z,11.37
2023-07-21T06:06:07.633Z,12.48
2023-07-21T06:08:36.695Z,10.30
2023-07-21T06:11:04.451Z,10.93
2023-07-21T06:13:32.075Z,12.15
2023-07-21T06:16:01.935Z,12.43
2023-07-21T06:18:29.497Z,13.35
2023-07-21T06:20:57.195Z,12.27
2023-07-21T06:23:25.146Z,13.30
2023-07-21T06:25:52.704Z,13.00
2023-07-21T06:28:20.637Z,12.13
2023-07-21T06:30:48.463Z,15.15
2023-07-21T06:33:20.078Z,11.98
2023-07-21T06:35:47.738Z,12.50
2023-07-21T06:38:15.400Z,11.32
2023-07-21T06:40:43.067Z,13.10
2023-07-21T06:43:10.865Z,14.20
2023-07-21T06:45:41.190Z,13.98
2023-07-21T06:48:10.234Z,13.43
2023-07-21T06:50:40.323Z,13.88
2023-07-21T06:53:08.164Z,12.30
2023-07-21T06:55:36.049Z,11.68
2023-07-21T06:58:05.272Z,13.20
2023-07-21T07:00:34.524Z,15.70
2023-07-21T07:03:02.407Z,14.43
2023-07-21T07:05:30.201Z,15.37
2023-07-21T07:07:59.514Z,13.68
2023-07-21T07:10:27.140Z,13.70
2023-07-21T07:12:58.150Z,14.70
2023-07-21T07:15:26.099Z,14.38
2023-07-21T07:17:54.006Z,14.60
2023-07-21T07:20:21.701Z,13.15
2023-07-21T07:22:49.672Z,14.57
2023-07-21T07:25:19.937Z,14.05
2023-07-21T07:27:47.578Z,12.57
2023-07-21T07:30:17.938Z,13.77
2023-07-21T07:32:45.735Z,15.18
2023-07-21T07:35:13.472Z,12.20
2023-07-21T07:37:41.675Z,14.82
2023-07-21T07:40:11.500Z,12.23
2023-07-21T07:42:40.651Z,13.10
2023-07-21T07:45:08.992Z,13.75
2023-07-21T07:47:37.029Z,12.00
2023-07-21T07:50:05.002Z,13.77
2023-07-21T07:52:33.227Z,13.68
2023-07-21T07:55:00.955Z,13.47
2023-07-21T07:57:28.799Z,12.35
2023-07-21T07:59:57.991Z,13.02
2023-07-21T08:02:25.648Z,12.88
2023-07-21T08:04:53.306Z,13.25
2023-07-21T08:07:21.093Z,10.93
2023-07-21T08:09:52.127Z,15.13
2023-07-21T08:12:19.778Z,13.20
2023-07-21T08:14:52.618Z,14.05
2023-07-21T08:17:21.898Z,12.88
2023-07-21T08:19:49.820Z,9.77
2023-07-21T08:22:17.609Z,12.73
2023-07-21T08:24:45.362Z,12.52
2023-07-21T08:27:19.404Z,11.98
2023-07-21T08:29:47.074Z,11.75
2023-07-21T08:32:14.792Z,11.73
2023-07-21T08:34:43.906Z,13.57
2023-07-21T08:37:11.803Z,11.90
2023-07-21T08:39:42.490Z,10.45
2023-07-21T08:42:11.424Z,10.67
2023-07-21T08:44:39.650Z,7.93
2023-07-21T08:47:07.620Z,8.63
2023-07-21T08:49:35.470Z,8.73
2023-07-21T08:52:06.076Z,7.22
2023-07-21T08:54:34.097Z,8.80
2023-07-21T08:57:01.727Z,10.05
2023-07-21T08:59:29.809Z,9.53
2023-07-21T09:01:57.663Z,7.13
2023-07-21T09:04:27.377Z,6.80
2023-07-21T09:06:55.929Z,5.88
2023-07-21T09:09:25.660Z,7.03
2023-07-21T09:12:01.059Z,8.13
2023-07-21T09:14:36.513Z,7.53
2023-07-21T09:17:05.011Z,7.30
2023-07-21T09:19:33.165Z,6.43
2023-07-21T09:22:00.757Z,8.93
2023-07-21T09:24:29.902Z,7.20
2023-07-21T09:27:11.559Z,5.60
2023-07-21T09:29:41.733Z,6.43
2023-07-21T09:32:13.158Z,8.07
2023-07-21T09:37:40.578Z,8.80
2023-07-21T09:40:11.509Z,6.03
2023-07-21T09:42:39.635Z,5.65
2023-07-21T09:45:07.962Z,5.22
2023-07-21T09:47:35.697Z,6.25
2023-07-21T09:50:04.898Z,6.27
2023-07-21T09:52:38.429Z,7.28
2023-07-21T09:55:10.423Z,6.20
2023-07-21T09:57:42.187Z,5.00
2023-07-21T10:00:14.578Z,5.15
2023-07-21T10:02:43.363Z,7.07
2023-07-21T10:05:11.764Z,5.32
2023-07-21T10:07:40.268Z,5.82
2023-07-21T10:10:11.012Z,5.78
2023-07-21T10:12:42.494Z,5.88
2023-07-21T10:15:16.265Z,5.37
2023-07-21T10:17:44.942Z,4.72
2023-07-21T10:20:14.083Z,4.90
2023-07-21T10:22:56.336Z,5.32
2023-07-21T10:25:26.089Z,5.05
2023-07-21T10:28:03.665Z,7.37
2023-07-21T10:30:31.421Z,5.00
2023-07-21T10:33:12.858Z,5.07
2023-07-21T10:35:41.261Z,6.53
2023-07-21T10:38:23.396Z,5.47
2023-07-21T10:40:52.473Z,6.33
2023-07-21T10:43:24.110Z,4.72
2023-07-21T10:45:54.908Z,5.82
2023-07-21T10:48:24.297Z,5.13
2023-07-21T10:50:55.798Z,5.70
2023-07-21T10:53:33.278Z,5.77
2023-07-21T10:56:08.683Z,5.40
2023-07-21T10:58:36.563Z,5.75
2023-07-21T11:01:04.226Z,4.60
2023-07-21T11:03:32.046Z,5.15
2023-07-21T11:05:59.890Z,5.80
2023-07-21T11:08:28.261Z,6.30
2023-07-21T11:10:56.393Z,5.25
2023-07-21T11:13:27.134Z,7.43
2023-07-21T11:15:55.061Z,5.80
2023-07-21T11:18:23.748Z,5.47
2023-07-21T11:20:52.646Z,5.38
2023-07-21T11:23:20.242Z,5.22
2023-07-21T11:26:07.012Z,5.20
2023-07-21T11:28:36.275Z,5.53
2023-07-21T11:31:03.940Z,6.18
2023-07-21T11:33:42.714Z,6.20
2023-07-21T11:36:14.333Z,6.10
2023-07-21T11:38:42.569Z,5.37
2023-07-21T11:41:10.437Z,5.60
2023-07-21T11:43:52.202Z,5.28
2023-07-21T11:46:24.319Z,5.35
2023-07-21T11:48:52.454Z,7.40
2023-07-21T11:51:23.084Z,4.83
2023-07-21T11:53:51.671Z,6.05
2023-07-21T11:56:19.363Z,5.30
2023-07-21T11:58:47.054Z,5.85
2023-07-21T12:01:16.411Z,5.05
2023-07-21T12:03:44.323Z,35.93
2023-07-21T12:06:12.088Z,16.67
2023-07-21T12:08:39.711Z,5.18
2023-07-21T12:11:07.594Z,4.75
2023-07-21T12:13:35.654Z,5.75
2023-07-21T12:16:04.598Z,6.03
2023-07-21T12:18:35.241Z,7.60
2023-07-21T12:21:03.016Z,5.15
2023-07-21T12:23:30.846Z,5.38
2023-07-21T12:25:58.610Z,7.45
2023-07-21T12:28:26.702Z,6.13
2023-07-21T12:30:54.683Z,6.72
2023-07-21T12:33:22.515Z,5.72
2023-07-21T12:35:51.554Z,5.93
2023-07-21T12:38:19.183Z,5.20
2023-07-21T12:40:50.129Z,5.20
2023-07-21T12:43:24.087Z,5.00
2023-07-21T12:45:51.978Z,4.30
2023-07-21T12:48:24.976Z,4.45
2023-07-21T12:50:54.100Z,6.40
2023-07-21T12:53:24.195Z,4.18
2023-07-21T12:55:53.338Z,7.57
2023-07-21T12:58:21.267Z,7.20
2023-07-21T13:00:49.215Z,4.30
2023-07-21T13:03:19.029Z,4.20
2023-07-21T13:05:56.545Z,3.88
2023-07-21T13:08:26.737Z,4.90
2023-07-21T13:10:54.734Z,5.07
2023-07-21T13:13:22.362Z,4.30
2023-07-21T13:15:50.059Z,6.25
2023-07-21T13:18:19.522Z,6.40
2023-07-21T13:20:47.244Z,5.80
2023-07-21T13:23:21.449Z,4.43
2023-07-21T13:25:51.557Z,4.50
2023-07-21T13:28:19.747Z,4.13
2023-07-21T13:30:47.863Z,3.80
2023-07-21T13:33:15.792Z,4.53
2023-07-21T13:35:43.375Z,3.55
2023-07-21T13:38:11.022Z,5.78
2023-07-21T13:40:38.914Z,5.07
2023-07-21T13:43:08.111Z,3.37
2023-07-21T13:45:35.764Z,3.85
2023-07-21T13:48:03.775Z,4.25
2023-07-21T13:50:31.479Z,6.18
2023-07-21T13:52:59.106Z,4.97
2023-07-21T13:55:28.605Z,5.03
2023-07-21T13:57:56.213Z,6.85
2023-07-21T14:00:26.217Z,5.18
2023-07-21T14:02:54.140Z,5.05
2023-07-21T14:05:21.940Z,5.97
2023-07-21T14:07:50.063Z,4.57
2023-07-21T14:10:18.354Z,4.70
2023-07-21T14:12:47.279Z,4.90
2023-07-21T14:15:15.281Z,4.60
2023-07-21T14:17:44.821Z,4.90
2023-07-21T14:20:14.297Z,4.30
2023-07-21T14:22:42.063Z,6.10
2023-07-21T14:25:11.114Z,4.65
2023-07-21T14:27:40.567Z,3.88
2023-07-21T14:30:10.521Z,4.35
2023-07-21T14:32:38.470Z,4.07
2023-07-21T14:35:10.239Z,6.55
2023-07-21T14:37:37.828Z,6.68
2023-07-21T14:40:12.223Z,6.88
2023-07-21T14:42:39.857Z,4.13
2023-07-21T14:45:08.299Z,4.37
2023-07-21T14:47:36.121Z,5.20
2023-07-21T14:50:03.822Z,5.47
2023-07-21T14:52:32.955Z,4.45
2023-07-21T14:55:01.412Z,3.83
2023-07-21T14:57:29.076Z,5.07
2023-07-21T14:59:56.721Z,4.88
2023-07-21T15:02:24.605Z,4.97
2023-07-21T15:04:52.341Z,4.28
2023-07-21T15:07:19.990Z,4.82
2023-07-21T15:09:49.401Z,5.33
2023-07-21T15:12:18.402Z,4.63
2023-07-21T15:14:48.105Z,5.32
2023-07-21T15:17:15.843Z,5.40
2023-07-21T15:19:43.636Z,5.80
2023-07-21T15:22:11.342Z,4.47
2023-07-21T15:24:39.098Z,5.00
2023-07-21T15:27:08.386Z,5.28
2023-07-21T15:29:36.192Z,4.88
2023-07-21T15:32:08.277Z,5.40
2023-07-21T15:34:36.630Z,6.60
2023-07-21T15:37:04.505Z,4.60
2023-07-21T15:39:34.478Z,5.03
2023-07-21T15:42:02.111Z,3.78
2023-07-21T15:44:31.220Z,5.47
2023-07-21T15:47:03.614Z,5.47
2023-07-21T15:49:42.204Z,4.85
2023-07-21T15:52:19.850Z,4.93
2023-07-21T15:54:49.830Z,4.53
2023-07-21T15:57:18.031Z,5.83
2023-07-21T15:59:49.952Z,7.50
2023-07-21T16:02:17.740Z,5.78
2023-07-21T16:04:47.075Z,5.97
2023-07-21T16:07:14.794Z,4.97
2023-07-21T16:09:42.636Z,4.63
2023-07-21T16:12:10.785Z,5.90
2023-07-21T16:14:38.729Z,5.20
2023-07-21T16:17:07.805Z,6.68
2023-07-21T16:19:35.446Z,5.47
2023-07-21T16:22:03.765Z,5.17
2023-07-21T16:24:31.544Z,4.65
2023-07-21T16:26:59.196Z,8.07
2023-07-21T16:29:26.928Z,6.40
2023-07-21T16:31:54.825Z,5.65
2023-07-21T16:34:26.464Z,5.73
2023-07-21T16:36:55.497Z,5.18
2023-07-21T16:39:23.190Z,7.20
2023-07-21T16:41:52.103Z,6.32
2023-07-21T16:44:20.719Z,3.65
2023-07-21T16:46:49.737Z,5.20
2023-07-21T16:49:17.449Z,4.80
2023-07-21T16:51:46.872Z,7.20
2023-07-21T16:54:14.665Z,5.10
2023-07-21T16:56:42.272Z,5.60
2023-07-21T17:01:55.644Z,5.97
2023-07-21T17:04:23.299Z,6.72
2023-07-21T17:06:52.272Z,3.90
2023-07-21T17:09:20.172Z,5.47
2023-07-21T17:11:47.747Z,5.90
2023-07-21T17:14:15.369Z,5.10
2023-07-21T17:16:52.203Z,5.68
2023-07-21T17:19:23.728Z,6.43
2023-07-21T17:21:54.901Z,5.60
2023-07-21T17:24:24.482Z,6.60
2023-07-21T17:26:52.297Z,4.90
2023-07-21T17:29:20.041Z,4.68
2023-07-21T17:31:47.716Z,7.55
2023-07-21T17:34:15.393Z,5.32
2023-07-21T17:36:43.213Z,6.57
2023-07-21T17:39:12.217Z,5.82
2023-07-21T17:41:39.840Z,4.75
2023-07-21T17:44:07.685Z,9.02
2023-07-21T17:46:35.931Z,4.30
2023-07-21T17:49:03.670Z,5.30
2023-07-21T17:51:31.628Z,6.93
2023-07-21T17:53:59.225Z,5.43
2023-07-21T17:56:28.785Z,8.02
2023-07-21T17:59:00.429Z,6.97
2023-07-21T18:01:28.304Z,7.40
2023-07-21T18:03:57.520Z,6.00
2023-07-21T18:06:25.457Z,6.88
2023-07-21T18:08:53.162Z,8.18
2023-07-21T18:11:20.760Z,6.40
2023-07-21T18:13:49.908Z,5.80
2023-07-21T18:16:18.578Z,4.22
2023-07-21T18:18:46.338Z,5.18
2023-07-21T18:21:14.278Z,5.88
2023-07-21T18:23:41.942Z,4.85
2023-07-21T18:26:09.636Z,6.67
2023-07-21T18:28:37.447Z,5.05
2023-07-21T18:31:08.722Z,5.03
2023-07-21T18:33:36.570Z,7.50
2023-07-21T18:36:11.592Z,5.30
2023-07-21T18:38:39.429Z,5.73
2023-07-21T18:41:07.021Z,6.53
2023-07-21T18:43:37.978Z,6.30
2023-07-21T18:46:05.767Z,6.43
2023-07-21T18:48:35.462Z,6.57
2023-07-21T18:51:03.217Z,7.53
2023-07-21T18:53:31.453Z,5.78
2023-07-21T18:55:59.026Z,6.13
2023-07-21T18:58:26.909Z,6.00
2023-07-21T19:00:55.265Z,7.50
2023-07-21T19:03:24.416Z,6.57
2023-07-21T19:05:55.667Z,7.40
2023-07-21T19:08:23.623Z,7.22
2023-07-21T19:10:52.999Z,6.03
2023-07-21T19:13:20.793Z,6.72
2023-07-21T19:15:49.272Z,7.03
2023-07-21T19:18:16.975Z,6.35
2023-07-21T19:20:44.783Z,7.30
2023-07-21T19:23:14.095Z,7.93
2023-07-21T19:25:41.825Z,7.57
2023-07-21T19:28:09.569Z,6.05
2023-07-21T19:30:40.499Z,7.40
2023-07-21T19:33:09.143Z,6.57
2023-07-21T19:35:37.724Z,7.80
2023-07-21T19:38:05.381Z,6.90
2023-07-21T19:40:34.449Z,8.32
2023-07-21T19:43:02.146Z,8.40
2023-07-21T19:45:29.781Z,6.63
2023-07-21T19:47:57.699Z,8.13
2023-07-21T19:50:26.687Z,6.10
2023-07-21T19:52:54.381Z,12.02
2023-07-21T19:55:22.192Z,7.63
2023-07-21T19:57:51.144Z,6.72
2023-07-21T20:00:19.180Z,7.30
2023-07-21T20:02:47.329Z,6.53
2023-07-21T20:05:15.083Z,5.55
2023-07-21T20:07:42.990Z,6.80
2023-07-21T20:10:11.372Z,6.40
2023-07-21T20:12:39.658Z,6.53
2023-07-21T20:15:10.098Z,6.75
2023-07-21T20:17:37.796Z,6.65
2023-07-21T20:20:06.284Z,6.40
2023-07-21T20:22:34.160Z,8.80
2023-07-21T20:25:01.988Z,6.03
2023-07-21T20:27:32.535Z,5.20
2023-07-21T20:30:00.496Z,5.53
2023-07-21T20:32:32.703Z,7.38
2023-07-21T20:35:00.828Z,5.97
2023-07-21T20:37:28.473Z,5.93
2023-07-21T20:39:56.057Z,4.35
2023-07-21T20:42:23.886Z,8.07
2023-07-21T20:44:51.596Z,6.00
2023-07-21T20:47:19.233Z,4.50
2023-07-21T20:49:48.435Z,7.35
2023-07-21T20:52:16.173Z,5.70
2023-07-21T20:54:43.845Z,6.53
2023-07-21T20:57:12.211Z,7.93
2023-07-21T20:59:45.232Z,6.22
2023-07-21T21:02:15.535Z,5.90
2023-07-21T21:04:43.356Z,7.82
2023-07-21T21:07:12.761Z,5.60
2023-07-21T21:09:40.572Z,8.95
2023-07-21T21:12:08.590Z,5.53
2023-07-21T21:14:36.282Z,6.27
2023-07-21T21:17:04.162Z,6.97
2023-07-21T21:19:31.879Z,6.13
2023-07-21T21:21:59.480Z,5.47
2023-07-21T21:24:30.604Z,7.22
2023-07-21T21:26:58.436Z,5.30
2023-07-21T21:29:26.031Z,6.07
2023-07-21T21:31:53.850Z,6.55
2023-07-21T21:34:21.690Z,7.20
2023-07-21T21:36:49.298Z,6.10
2023-07-21T21:39:17.107Z,5.18
2023-07-21T21:41:48.684Z,7.72
2023-07-21T21:44:16.254Z,8.45
2023-07-21T21:46:44.541Z,5.63
2023-07-21T21:49:12.277Z,6.60
2023-07-21T21:51:39.863Z,6.00
2023-07-21T21:54:07.544Z,6.15
2023-07-21T21:56:35.479Z,6.05
2023-07-21T21:59:04.446Z,6.53
2023-07-21T22:01:32.220Z,7.27
2023-07-21T22:04:00.271Z,6.57
2023-07-21T22:06:28.469Z,6.13
2023-07-21T22:08:56.456Z,7.35
2023-07-21T22:11:25.682Z,5.50
2023-07-21T22:13:53.531Z,5.27
2023-07-21T22:16:24.111Z,5.15
2023-07-21T22:18:52.018Z,8.43
2023-07-21T22:21:19.718Z,6.35
2023-07-21T22:23:48.407Z,6.85
2023-07-21T22:26:16.050Z,5.07
2023-07-21T22:28:43.629Z,6.47
2023-07-21T22:31:15.051Z,8.25
2023-07-21T22:33:45.648Z,5.78
2023-07-21T22:36:14.549Z,7.35
2023-07-21T22:38:42.456Z,7.03
2023-07-21T22:41:12.336Z,6.32
2023-07-21T22:43:39.938Z,5.80
2023-07-21T22:46:08.772Z,7.72
2023-07-21T22:48:36.488Z,5.70
2023-07-21T22:51:09.895Z,5.43
2023-07-21T22:53:42.022Z,5.72
2023-07-21T22:56:10.086Z,7.53
2023-07-21T22:58:38.388Z,7.75
2023-07-21T23:01:06.771Z,9.95
2023-07-21T23:03:34.816Z,7.03
2023-07-21T23:06:04.273Z,7.20
2023-07-21T23:08:34.180Z,6.38
2023-07-21T23:11:02.539Z,6.57
2023-07-21T23:13:32.309Z,8.23
2023-07-21T23:16:00.121Z,6.50
2023-07-21T23:18:27.816Z,7.38
2023-07-21T23:20:55.437Z,10.30
2023-07-21T23:23:23.122Z,5.78
2023-07-21T23:25:52.387Z,5.50
2023-07-21T23:28:20.703Z,9.30
2023-07-21T23:30:48.478Z,6.82
2023-07-21T23:33:16.181Z,9.25
2023-07-21T23:35:44.270Z,6.97
2023-07-21T23:38:11.938Z,5.60
2023-07-21T23:40:39.580Z,7.15
2023-07-21T23:43:10.254Z,6.03
2023-07-21T23:45:38.067Z,8.73
2023-07-21T23:48:06.421Z,6.47
2023-07-21T23:50:34.209Z,7.18
2023-07-21T23:53:01.877Z,6.25
2023-07-21T23:55:30.422Z,6.68
2023-07-21T23:57:58.218Z,7.20
